Time;durP1;ratioP1;P1;durP2;ratioP2;P2;SDS_P1;SDS_P2;PMS_P1;PMS_P2;Temp;Humidity;BMP_temperature;BMP_pressure;BME280_temperature;BME280_humidity;BME280_pressure;Samples;Min_cycle;Max_cycle;Signal;HPM_P1;HPM_P2
2023/08/01 00:02:17;;;;;;;;;;;;;;;14.71;100.00;99704.03;5052452;28;19919;-84
2023/08/01 00:05:02;;;;;;;;;;;;;;;14.72;100.00;99694.22;5049492;28;19935;-85
2023/08/01 00:07:48;;;;;;;;;;;;;;;14.72;100.00;99696.88;5053314;28;19928;-85
2023/08/01 00:10:33;;;;;;;;;;;;;;;14.72;100.00;99695.09;5050173;28;20302;-86
2023/08/01 00:13:18;;;;;;;;;;;;;;;14.72;100.00;99695.09;5053045;28;19928;-86
2023/08/01 00:16:04;;;;;;;;;;;;;;;14.73;100.00;99691.44;5067315;28;20101;-85
2023/08/01 00:18:49;;;;;;;;;;;;;;;14.74;100.00;99689.63;5053948;28;19924;-84
2023/08/01 00:21:35;;;;;;;;;;;;;;;14.73;100.00;99685.25;5066657;28;20049;-85
2023/08/01 00:24:20;;;;;;;;;;;;;;;14.71;100.00;99690.69;5049665;28;19931;-83
2023/08/01 00:27:08;;;;;;;;;;;;;;;14.69;100.00;99682.00;5053074;28;19966;-85
2023/08/01 00:29:54;;;;;;;;;;;;;;;14.66;100.00;99674.28;5054257;28;20379;-84
2023/08/01 00:32:39;;;;;;;;;;;;;;;14.64;100.00;99670.88;5063351;28;20005;-85
2023/08/01 00:35:25;;;;;;;;;;;;;;;14.59;100.00;99668.59;5066003;28;19931;-84
2023/08/01 00:38:10;;;;;;;;;;;;;;;14.57;100.00;99664.34;5053245;28;19928;-84
2023/08/01 00:40:55;;;;;;;;;;;;;;;14.51;100.00;99661.19;5053493;28;19924;-84
2023/08/01 00:43:40;;;;;;;;;;;;;;;14.49;100.00;99662.31;5053120;28;19919;-85
2023/08/01 00:46:26;;;;;;;;;;;;;;;14.45;100.00;99659.06;5053262;28;19928;-85
2023/08/01 00:49:11;;;;;;;;;;;;;;;14.41;100.00;99654.94;5052594;28;19921;-86
2023/08/01 00:51:56;;;;;;;;;;;;;;;14.37;100.00;99658.81;5052874;28;19924;-83
2023/08/01 00:54:42;;;;;;;;;;;;;;;14.33;100.00;99646.75;5066454;28;20543;-86
2023/08/01 00:57:27;;;;;;;;;;;;;;;14.29;100.00;99645.28;5069203;28;19923;-86
2023/08/01 01:00:12;;;;;;;;;;;;;;;14.26;100.00;99643.72;5056652;28;19929;-85
2023/08/01 01:02:58;;;;;;;;;;;;;;;14.24;100.00;99627.88;5057943;28;19935;-84
2023/08/01 01:05:47;;;;;;;;;;;;;;;14.23;100.00;99628.81;5057578;28;20023;-84
2023/08/01 01:08:33;;;;;;;;;;;;;;;14.21;100.00;99630.78;5070673;28;20369;-84
2023/08/01 01:11:18;;;;;;;;;;;;;;;14.20;100.00;99628.22;5054466;28;20839;-83
2023/08/01 01:14:03;;;;;;;;;;;;;;;14.17;100.00;99621.31;5057344;28;20409;-83
2023/08/01 01:16:49;;;;;;;;;;;;;;;14.16;100.00;99624.97;5057032;28;20379;-84
2023/08/01 01:19:34;;;;;;;;;;;;;;;14.11;100.00;99612.03;5051652;28;19929;-83
2023/08/01 01:22:19;;;;;;;;;;;;;;;14.09;100.00;99610.47;5057550;28;20019;-83
2023/08/01 01:25:05;;;;;;;;;;;;;;;14.07;100.00;99612.41;5057365;28;19927;-84
2023/08/01 01:27:50;;;;;;;;;;;;;;;14.03;100.00;99605.63;5070035;28;19915;-84
2023/08/01 01:30:35;;;;;;;;;;;;;;;14.03;100.00;99608.28;5069978;28;19920;-85
2023/08/01 01:33:21;;;;;;;;;;;;;;;14.02;100.00;99601.28;5069385;28;22159;-84
2023/08/01 01:36:06;;;;;;;;;;;;;;;13.99;100.00;99597.91;5069770;28;19920;-83
2023/08/01 01:38:51;;;;;;;;;;;;;;;13.95;100.00;99593.78;5044319;28;19936;-83
2023/08/01 01:41:36;;;;;;;;;;;;;;;13.94;100.00;99599.25;5047024;28;19928;-83
2023/08/01 01:44:22;;;;;;;;;;;;;;;13.93;100.00;99592.19;5055430;28;19924;-83
2023/08/01 01:47:07;;;;;;;;;;;;;;;13.91;100.00;99581.72;5056467;28;20452;-83
2023/08/01 01:49:52;;;;;;;;;;;;;;;13.90;100.00;99581.81;5070400;28;20009;-82
2023/08/01 01:52:38;;;;;;;;;;;;;;;13.88;100.00;99575.78;5056563;28;19923;-83
2023/08/01 01:55:23;;;;;;;;;;;;;;;13.87;100.00;99577.59;5054138;28;19928;-85
2023/08/01 01:58:08;;;;;;;;;;;;;;;13.87;100.00;99582.03;5055601;28;19924;-83
2023/08/01 02:00:53;;;;;;;;;;;;;;;13.88;100.00;99581.94;5047163;28;20419;-84
2023/08/01 02:03:42;;;;;;;;;;;;;;;13.88;100.00;99579.28;5054578;28;20414;-85
2023/08/01 02:06:27;;;;;;;;;;;;;;;13.90;100.00;99574.66;5055757;28;19950;-85
2023/08/01 02:09:12;;;;;;;;;;;;;;;13.93;100.00;99571.78;5055467;28;20022;-83
2023/08/01 02:11:58;;;;;;;;;;;;;;;13.96;100.00;99571.53;5069251;28;19925;-83
2023/08/01 02:14:43;;;;;;;;;;;;;;;14.01;100.00;99572.97;5056456;28;20532;-83
2023/08/01 02:17:28;;;;;;;;;;;;;;;14.04;100.00;99575.38;5057367;28;19933;-86
2023/08/01 02:20:13;;;;;;;;;;;;;;;14.10;100.00;99582.88;5058052;28;19951;-85
2023/08/01 02:22:59;;;;;;;;;;;;;;;14.16;100.00;99576.22;5056516;28;19962;-89
2023/08/01 02:25:44;;;;;;;;;;;;;;;14.20;100.00;99591.81;5068576;28;19963;-87
2023/08/01 02:28:29;;;;;;;;;;;;;;;14.22;100.00;99584.53;5056054;28;19928;-88
2023/08/01 02:31:15;;;;;;;;;;;;;;;14.19;100.00;99579.50;5055120;28;20066;-86
2023/08/01 02:34:00;;;;;;;;;;;;;;;14.14;100.00;99584.31;5058095;28;19924;-90
2023/08/01 02:36:46;;;;;;;;;;;;;;;14.09;100.00;99578.53;5070085;28;19932;-87
2023/08/01 02:39:31;;;;;;;;;;;;;;;14.06;100.00;99581.44;5059586;28;19953;-89
2023/08/01 02:42:16;;;;;;;;;;;;;;;14.02;100.00;99577.31;5057168;28;20383;-88
2023/08/01 02:45:01;;;;;;;;;;;;;;;13.98;100.00;99580.25;5057854;28;19924;-89
2023/08/01 02:47:47;;;;;;;;;;;;;;;13.96;100.00;99579.50;5060067;28;19924;-94
2023/08/01 02:50:32;;;;;;;;;;;;;;;13.94;100.00;99578.78;5060988;28;19925;-89
2023/08/01 02:53:17;;;;;;;;;;;;;;;13.93;100.00;99577.09;5063995;28;21781;-91
2023/08/01 02:56:04;;;;;;;;;;;;;;;13.93;100.00;99581.56;5070845;28;19921;-90
2023/08/01 02:58:51;;;;;;;;;;;;;;;13.92;100.00;99578.06;5051441;28;19936;-87
2023/08/01 03:01:37;;;;;;;;;;;;;;;13.89;100.00;99578.31;5051726;28;20449;-87
2023/08/01 03:04:22;;;;;;;;;;;;;;;13.89;100.00;99570.31;5046512;28;20054;-88
2023/08/01 03:07:08;;;;;;;;;;;;;;;13.89;100.00;99577.47;5055208;28;19932;-87
2023/08/01 03:09:53;;;;;;;;;;;;;;;13.86;100.00;99570.56;5055553;28;19935;-90
2023/08/01 03:12:38;;;;;;;;;;;;;;;13.84;100.00;99568.03;5050695;28;19924;-87
2023/08/01 03:15:23;;;;;;;;;;;;;;;13.83;100.00;99565.47;5061073;28;20406;-92
2023/08/01 03:18:12;;;;;;;;;;;;;;;13.82;100.00;99569.13;5064448;28;19928;-88
2023/08/01 03:20:57;;;;;;;;;;;;;;;13.79;100.00;99567.53;5054688;28;20341;-87
2023/08/01 03:23:42;;;;;;;;;;;;;;;13.77;100.00;99571.31;5057671;28;20379;-91
2023/08/01 03:26:28;;;;;;;;;;;;;;;13.73;100.00;99557.38;5046515;28;21773;-87
2023/08/01 03:29:13;;;;;;;;;;;;;;;13.71;100.00;99556.69;5054923;28;20003;-87
2023/08/01 03:31:59;;;;;;;;;;;;;;;13.69;100.00;99561.28;5054049;28;19928;-89
2023/08/01 03:34:44;;;;;;;;;;;;;;;13.67;100.00;99572.03;5055325;28;19947;-88
2023/08/01 03:37:29;;;;;;;;;;;;;;;13.66;100.00;99564.16;5055719;28;19982;-88
2023/08/01 03:40:15;;;;;;;;;;;;;;;13.66;100.00;99574.81;5043597;28;20371;-84
2023/08/01 03:43:00;;;;;;;;;;;;;;;13.65;100.00;99576.63;5067325;28;19923;-87
2023/08/01 03:45:45;;;;;;;;;;;;;;;13.64;100.00;99577.59;5040329;28;19951;-84
2023/08/01 03:48:31;;;;;;;;;;;;;;;13.63;100.00;99581.22;5054542;28;20427;-87
2023/08/01 03:51:17;;;;;;;;;;;;;;;13.63;100.00;99586.56;5053841;28;20064;-86
2023/08/01 03:54:03;;;;;;;;;;;;;;;13.62;100.00;99584.84;5054779;28;20671;-88
2023/08/01 03:56:48;;;;;;;;;;;;;;;13.61;100.00;99577.81;5054926;28;19954;-89
2023/08/01 03:59:33;;;;;;;;;;;;;;;13.62;100.00;99573.38;5056408;28;19986;-88
2023/08/01 04:02:18;;;;;;;;;;;;;;;13.62;100.00;99578.69;5054666;28;19920;-85
2023/08/01 04:05:04;;;;;;;;;;;;;;;13.62;100.00;99574.19;5049587;28;20276;-87
2023/08/01 04:07:49;;;;;;;;;;;;;;;13.62;100.00;99579.50;5053072;28;20018;-87
2023/08/01 04:10:35;;;;;;;;;;;;;;;13.65;100.00;99581.94;5054477;28;20366;-88
2023/08/01 04:13:20;;;;;;;;;;;;;;;13.66;100.00;99572.13;5053320;28;19957;-87
2023/08/01 04:16:05;;;;;;;;;;;;;;;13.70;100.00;99577.13;5049277;28;19986;-88
2023/08/01 04:18:50;;;;;;;;;;;;;;;13.72;100.00;99566.34;5059567;28;19928;-91
2023/08/01 04:21:36;;;;;;;;;;;;;;;13.75;100.00;99574.09;5058204;28;19974;-91
2023/08/01 04:24:24;;;;;;;;;;;;;;;13.77;100.00;99581.97;5072394;28;19920;-89
2023/08/01 04:27:10;;;;;;;;;;;;;;;13.77;100.00;99582.78;5062841;28;20284;-89
2023/08/01 04:29:55;;;;;;;;;;;;;;;13.78;100.00;99579.16;5062100;28;20414;-91
2023/08/01 04:32:40;;;;;;;;;;;;;;;13.80;100.00;99576.38;5063093;28;20722;-94
2023/08/01 04:35:26;;;;;;;;;;;;;;;13.79;100.00;99567.53;5067943;28;20272;-91
2023/08/01 04:38:11;;;;;;;;;;;;;;;13.80;100.00;99571.06;5055622;28;19928;-90
2023/08/01 04:40:56;;;;;;;;;;;;;;;13.81;100.00;99568.28;5054007;28;20384;-87
2023/08/01 04:43:41;;;;;;;;;;;;;;;13.83;100.00;99568.16;5053128;28;20353;-88
2023/08/01 04:46:27;;;;;;;;;;;;;;;13.85;100.00;99563.56;5054835;28;20015;-88
2023/08/01 04:49:12;;;;;;;;;;;;;;;13.88;100.00;99573.94;5054632;28;19936;-86
2023/08/01 04:51:57;;;;;;;;;;;;;;;13.91;100.00;99565.75;5044146;28;19967;-90
2023/08/01 04:54:42;;;;;;;;;;;;;;;13.92;100.00;99572.75;5064241;28;19924;-91
2023/08/01 04:57:28;;;;;;;;;;;;;;;13.93;100.00;99585.09;5063162;28;20423;-88
2023/08/01 05:00:13;;;;;;;;;;;;;;;13.91;100.00;99573.72;5055409;28;20069;-87
2023/08/01 05:02:59;;;;;;;;;;;;;;;13.89;100.00;99572.16;5053196;28;20905;-84
2023/08/01 05:05:44;;;;;;;;;;;;;;;13.87;100.00;99569.59;5054117;28;20452;-86
2023/08/01 05:08:29;;;;;;;;;;;;;;;13.88;100.00;99573.94;5068782;28;19932;-90
2023/08/01 05:11:14;;;;;;;;;;;;;;;13.88;100.00;99579.28;5058359;28;19962;-91
2023/08/01 05:14:00;;;;;;;;;;;;;;;13.88;100.00;99579.28;5063557;28;19928;-92
2023/08/01 05:16:45;;;;;;;;;;;;;;;13.88;100.00;99573.94;5059896;28;20371;-87
2023/08/01 05:19:30;;;;;;;;;;;;;;;13.88;100.00;99579.28;5059031;28;19982;-88
2023/08/01 05:22:16;;;;;;;;;;;;;;;13.87;100.00;99572.25;5054360;28;19939;-85
2023/08/01 05:25:01;;;;;;;;;;;;;;;13.87;100.00;99571.41;5053803;28;20038;-86
2023/08/01 05:27:47;;;;;;;;;;;;;;;13.84;100.00;99564.53;5048158;28;20175;-85
2023/08/01 05:30:32;;;;;;;;;;;;;;;13.85;100.00;99571.56;5051942;28;20055;-86
2023/08/01 05:33:17;;;;;;;;;;;;;;;13.85;100.00;99582.19;5052825;28;20616;-87
2023/08/01 05:36:03;;;;;;;;;;;;;;;13.86;100.00;99581.22;5053358;28;19924;-86
2023/08/01 05:38:48;;;;;;;;;;;;;;;13.82;100.00;99583.28;5056573;28;20029;-85
2023/08/01 05:41:33;;;;;;;;;;;;;;;13.82;100.00;99582.41;5052649;28;20691;-85
2023/08/01 05:44:18;;;;;;;;;;;;;;;13.83;100.00;99582.31;5057418;28;19928;-88
2023/08/01 05:47:04;;;;;;;;;;;;;;;13.87;100.00;99576.72;5056437;28;19946;-87
2023/08/01 05:49:49;;;;;;;;;;;;;;;13.87;100.00;99580.25;5050136;28;20003;-91
2023/08/01 05:52:34;;;;;;;;;;;;;;;13.88;100.00;99581.94;5058970;28;20020;-94
2023/08/01 05:55:20;;;;;;;;;;;;;;;13.80;100.00;99584.38;5059625;28;20869;-88
2023/08/01 05:58:06;;;;;;;;;;;;;;;13.73;100.00;99584.00;5057481;28;20355;-94
2023/08/01 06:00:51;;;;;;;;;;;;;;;13.70;100.00;99582.44;5058042;28;21814;-91
2023/08/01 06:03:36;;;;;;;;;;;;;;;13.67;100.00;99581.84;5069605;28;19938;-89
2023/08/01 06:06:21;;;;;;;;;;;;;;;13.70;100.00;99584.25;5058157;28;19931;-89
2023/08/01 06:09:07;;;;;;;;;;;;;;;13.75;100.00;99587.41;5057952;28;20019;-88
2023/08/01 06:11:52;;;;;;;;;;;;;;;13.78;100.00;99575.66;5060663;28;19924;-91
2023/08/01 06:14:37;;;;;;;;;;;;;;;13.79;100.00;99582.69;5071920;28;20779;-89
2023/08/01 06:17:23;;;;;;;;;;;;;;;13.81;100.00;99580.72;5073171;28;20398;-89
2023/08/01 06:20:08;;;;;;;;;;;;;;;13.84;100.00;99575.19;5060925;28;19930;-90
2023/08/01 06:22:54;;;;;;;;;;;;;;;13.83;100.00;99576.13;5062737;28;19989;-88
2023/08/01 06:25:42;;;;;;;;;;;;;;;13.84;100.00;99576.00;5057862;28;19923;-87
2023/08/01 06:28:27;;;;;;;;;;;;;;;13.90;100.00;99576.50;5050864;28;20062;-90
2023/08/01 06:31:12;;;;;;;;;;;;;;;13.91;100.00;99573.72;5060276;28;19928;-89
2023/08/01 06:33:57;;;;;;;;;;;;;;;13.93;100.00;99577.09;5056980;28;19936;-86
2023/08/01 06:36:43;;;;;;;;;;;;;;;13.96;100.00;99579.50;5058177;28;19976;-88
2023/08/01 06:39:28;;;;;;;;;;;;;;;13.99;100.00;99576.63;5068380;28;20021;-92
2023/08/01 06:42:13;;;;;;;;;;;;;;;14.01;100.00;99570.31;5058663;28;20405;-88
2023/08/01 06:44:59;;;;;;;;;;;;;;;14.04;100.00;99573.56;5058951;28;19929;-91
2023/08/01 06:47:44;;;;;;;;;;;;;;;14.08;100.00;99564.38;5067782;28;20439;-86
2023/08/01 06:50:29;;;;;;;;;;;;;;;14.10;100.00;99564.25;5054937;28;19928;-83
2023/08/01 06:53:15;;;;;;;;;;;;;;;14.09;100.00;99565.22;5066884;28;20381;-86
2023/08/01 06:56:00;;;;;;;;;;;;;;;14.08;100.00;99559.06;5057269;28;21222;-88
2023/08/01 06:58:45;;;;;;;;;;;;;;;14.05;100.00;99569.94;5057162;28;20271;-85
2023/08/01 07:01:32;;;;;;;;;;;;;;;14.09;100.00;99573.19;5056675;28;19939;-87
2023/08/01 07:04:18;;;;;;;;;;;;;;;14.12;100.00;99575.63;5057564;28;20458;-88
2023/08/01 07:07:03;;;;;;;;;;;;;;;14.13;100.00;99574.66;5054963;28;19930;-91
2023/08/01 07:09:49;;;;;;;;;;;;;;;14.12;100.00;99584.44;5055483;28;19932;-87
2023/08/01 07:12:34;;;;;;;;;;;;;;;14.16;100.00;99579.72;5071116;28;19968;-87
2023/08/01 07:15:19;;;;;;;;;;;;;;;14.20;100.00;99583.84;5069215;28;19925;-86
2023/08/01 07:18:04;;;;;;;;;;;;;;;14.22;100.00;99591.72;5047627;28;19964;-88
2023/08/01 07:20:59;;;;;;;;;;;;;;;14.23;100.00;99593.38;5058577;28;19948;-87
2023/08/01 07:23:44;;;;;;;;;;;;;;;14.22;100.00;99595.19;5053589;28;20363;-86
2023/08/01 07:26:30;;;;;;;;;;;;;;;14.22;100.00;99605.84;5054613;28;19935;-84
2023/08/01 07:29:15;;;;;;;;;;;;;;;14.22;100.00;99605.84;5054973;28;20391;-85
2023/08/01 07:32:00;;;;;;;;;;;;;;;14.15;100.00;99604.66;5057443;28;20471;-86
2023/08/01 07:34:46;;;;;;;;;;;;;;;14.03;100.00;99609.16;5058112;28;19928;-84
2023/08/01 07:37:33;;;;;;;;;;;;;;;13.95;100.00;99598.28;5066653;28;20030;-83
2023/08/01 07:40:18;;;;;;;;;;;;;;;13.91;100.00;99589.69;5054718;28;19924;-83
2023/08/01 07:43:03;;;;;;;;;;;;;;;13.90;100.00;99606.59;5035551;28;19999;-83
2023/08/01 07:45:50;;;;;;;;;;;;;;;13.89;100.00;99604.91;5067236;28;19932;-82
2023/08/01 07:48:35;;;;;;;;;;;;;;;13.90;100.00;99598.63;5042471;28;19920;-83
2023/08/01 07:51:20;;;;;;;;;;;;;;;13.92;100.00;99601.16;5066810;28;19975;-83
2023/08/01 07:54:06;;;;;;;;;;;;;;;13.95;100.00;99603.59;5054587;28;19932;-85
2023/08/01 07:56:51;;;;;;;;;;;;;;;13.96;100.00;99603.44;5054172;28;19932;-87
2023/08/01 07:59:36;;;;;;;;;;;;;;;13.99;100.00;99603.22;5054003;28;19920;-84
2023/08/01 08:02:22;;;;;;;;;;;;;;;14.05;100.00;99609.84;5053640;28;20161;-84
2023/08/01 08:05:07;;;;;;;;;;;;;;;14.06;100.00;99613.38;5053687;28;19954;-82
2023/08/01 08:07:52;;;;;;;;;;;;;;;14.06;100.00;99613.38;5054038;28;19928;-85
2023/08/01 08:10:38;;;;;;;;;;;;;;;13.99;100.00;99619.19;5054533;28;19924;-83
2023/08/01 08:13:23;;;;;;;;;;;;;;;13.98;100.00;99622.81;5054185;28;20334;-83
2023/08/01 08:16:09;;;;;;;;;;;;;;;13.98;100.00;99611.31;5052913;28;19939;-82
2023/08/01 08:18:55;;;;;;;;;;;;;;;13.98;100.00;99613.97;5044712;28;19975;-82
2023/08/01 08:21:40;;;;;;;;;;;;;;;14.01;100.00;99621.72;5066992;28;19942;-84
2023/08/01 08:24:26;;;;;;;;;;;;;;;14.02;100.00;99618.09;5052464;28;19931;-82
2023/08/01 08:27:11;;;;;;;;;;;;;;;14.02;100.00;99620.75;5053713;28;19924;-84
2023/08/01 08:29:56;;;;;;;;;;;;;;;14.05;100.00;99615.19;5065995;28;19982;-85
2023/08/01 08:32:42;;;;;;;;;;;;;;;14.14;100.00;99621.59;5053756;28;19920;-89
2023/08/01 08:35:27;;;;;;;;;;;;;;;14.21;100.00;99622.78;5053172;28;19924;-87
2023/08/01 08:38:12;;;;;;;;;;;;;;;14.29;100.00;99623.97;5053064;28;19951;-87
2023/08/01 08:40:58;;;;;;;;;;;;;;;14.38;100.00;99628.56;5055838;28;19924;-85
2023/08/01 08:43:43;;;;;;;;;;;;;;;14.78;100.00;99622.66;5055908;28;20049;-88
2023/08/01 08:46:29;;;;;;;;;;;;;;;15.05;100.00;99634.66;5071288;28;20443;-81
2023/08/01 08:49:15;;;;;;;;;;;;;;;14.90;100.00;99638.63;5057672;28;19947;-84
2023/08/01 08:52:02;;;;;;;;;;;;;;;14.73;100.00;99639.97;5053125;28;19935;-84
2023/08/01 08:54:48;;;;;;;;;;;;;;;14.66;100.00;99632.47;5053163;28;20594;-86
2023/08/01 08:57:33;;;;;;;;;;;;;;;14.66;100.00;99643.13;5054774;28;20643;-91
2023/08/01 09:00:19;;;;;;;;;;;;;;;14.75;100.00;99641.56;5067071;28;19920;-84
2023/08/01 09:03:04;;;;;;;;;;;;;;;14.96;100.00;99651.44;5052048;28;19925;-91
2023/08/01 09:05:50;;;;;;;;;;;;;;;15.09;100.00;99647.75;5054778;28;19924;-86
2023/08/01 09:08:36;;;;;;;;;;;;;;;15.15;100.00;99650.72;5053804;28;19925;-85
2023/08/01 09:11:21;;;;;;;;;;;;;;;15.14;100.00;99646.38;5053948;28;19928;-86
2023/08/01 09:14:07;;;;;;;;;;;;;;;15.20;100.00;99655.69;5051704;28;19928;-90
2023/08/01 09:16:52;;;;;;;;;;;;;;;15.20;100.00;99658.38;5055803;28;19924;-83
2023/08/01 09:19:38;;;;;;;;;;;;;;;15.14;100.00;99650.88;5062531;28;19967;-87
2023/08/01 09:22:23;;;;;;;;;;;;;;;15.10;100.00;99652.97;5071171;28;20010;-91
2023/08/01 09:25:08;;;;;;;;;;;;;;;15.06;100.00;99654.19;5060322;28;19928;-85
2023/08/01 09:27:54;;;;;;;;;;;;;;;15.17;100.00;99658.59;5058583;28;19946;-88
2023/08/01 09:30:49;;;;;;;;;;;;;;;15.42;100.00;99656.53;5062934;28;20019;-90
2023/08/01 09:33:39;;;;;;;;;;;;;;;15.65;100.00;99659.06;5063495;28;20026;-89
2023/08/01 09:36:25;;;;;;;;;;;;;;;15.73;100.00;99662.78;5055850;28;19929;-91
2023/08/01 09:39:15;;;;;;;;;;;;;;;15.80;100.00;99667.56;5060465;28;20306;-90
2023/08/01 09:42:01;;;;;;;;;;;;;;;15.86;100.00;99675.06;5077256;28;19927;-90
2023/08/01 09:44:47;;;;;;;;;;;;;;;15.91;100.00;99674.66;5062341;28;19931;-87
2023/08/01 09:47:36;;;;;;;;;;;;;;;15.98;100.00;99689.19;5061796;28;19925;-87
2023/08/01 09:50:22;;;;;;;;;;;;;;;16.10;100.00;99677.44;5061248;28;19935;-91
2023/08/01 09:53:08;;;;;;;;;;;;;;;16.30;100.00;99682.84;5066873;28;19920;-94
2023/08/01 09:55:53;;;;;;;;;;;;;;;16.32;100.00;99683.56;5067610;28;20031;-93
2023/08/01 09:58:38;;;;;;;;;;;;;;;16.31;100.00;99681.88;5068671;28;19923;-90
2023/08/01 10:01:24;;;;;;;;;;;;;;;16.27;100.00;99693.78;5065532;28;20019;-94
2023/08/01 10:04:12;;;;;;;;;;;;;;;16.40;100.00;99685.56;5062448;28;19928;-88
2023/08/01 10:06:59;;;;;;;;;;;;;;;16.52;100.00;99689.78;5076212;28;19932;-91
2023/08/01 10:09:44;;;;;;;;;;;;;;;16.47;100.00;99693.88;5065948;28;19924;-96
2023/08/01 10:12:29;;;;;;;;;;;;;;;16.37;100.00;99691.16;5065250;28;20010;-95
2023/08/01 10:15:15;;;;;;;;;;;;;;;16.36;100.00;99693.00;5064578;28;19917;-90
2023/08/01 10:18:00;;;;;;;;;;;;;;;16.57;100.00;99692.06;5063805;28;19959;-91
2023/08/01 10:20:46;;;;;;;;;;;;;;;16.73;100.00;99688.88;5063680;28;19943;-87
2023/08/01 10:23:32;;;;;;;;;;;;;;;16.78;100.00;99694.63;5065592;28;19942;-89
2023/08/01 10:26:17;;;;;;;;;;;;;;;16.77;100.00;99703.63;5041694;28;20941;-88
2023/08/01 10:29:03;;;;;;;;;;;;;;;16.67;100.00;99700.94;5059929;28;19978;-89
2023/08/01 10:31:54;;;;;;;;;;;;;;;16.60;100.00;99702.47;5059893;28;19928;-89
2023/08/01 10:34:39;;;;;;;;;;;;;;;16.55;100.00;99715.38;5064057;28;20013;-89
2023/08/01 10:37:25;;;;;;;;;;;;;;;16.51;100.00;99717.50;5062613;28;19924;-90
2023/08/01 10:40:10;;;;;;;;;;;;;;;16.62;100.00;99721.03;5059058;28;19950;-89
2023/08/01 10:42:56;;;;;;;;;;;;;;;16.76;100.00;99714.44;5072955;28;20856;-87
2023/08/01 10:45:41;;;;;;;;;;;;;;;16.89;100.00;99711.53;5064178;28;19971;-87
2023/08/01 10:48:26;;;;;;;;;;;;;;;16.96;100.00;99721.53;5065826;28;19990;-89
2023/08/01 10:51:12;;;;;;;;;;;;;;;16.90;100.00;99719.44;5060880;28;19955;-90
2023/08/01 10:53:57;;;;;;;;;;;;;;;16.83;100.00;99735.16;5061747;28;21923;-86
2023/08/01 10:56:44;;;;;;;;;;;;;;;16.75;100.00;99732.34;5059312;28;19920;-88
2023/08/01 10:59:29;;;;;;;;;;;;;;;16.66;100.00;99742.00;5059188;28;19928;-87
2023/08/01 11:02:22;;;;;;;;;;;;;;;16.62;100.00;99732.56;5068755;28;20121;-86
2023/08/01 11:05:07;;;;;;;;;;;;;;;16.66;100.00;99743.81;5057837;28;19932;-89
2023/08/01 11:07:54;;;;;;;;;;;;;;;16.71;100.00;99741.59;5059127;28;19935;-92
2023/08/01 11:10:39;;;;;;;;;;;;;;;16.93;100.00;99731.66;5055660;28;20531;-87
2023/08/01 11:13:25;;;;;;;;;;;;;;;17.16;100.00;99740.28;5070487;28;19927;-87
2023/08/01 11:16:11;;;;;;;;;;;;;;;17.37;100.00;99750.88;5058817;28;20049;-87
2023/08/01 11:18:56;;;;;;;;;;;;;;;17.52;100.00;99747.75;5057899;28;20368;-89
2023/08/01 11:21:42;;;;;;;;;;;;;;;17.55;100.00;99755.53;5057651;28;19929;-83
2023/08/01 11:24:28;;;;;;;;;;;;;;;17.55;100.00;99757.34;5056601;28;19928;-88
2023/08/01 11:27:13;;;;;;;;;;;;;;;17.48;100.00;99763.25;5053244;28;19924;-91
2023/08/01 11:29:58;;;;;;;;;;;;;;;17.35;100.00;99760.88;5069172;28;20013;-84
2023/08/01 11:32:43;;;;;;;;;;;;;;;17.14;100.00;99762.81;5053697;28;19979;-87
2023/08/01 11:35:29;;;;;;;;;;;;;;;17.09;100.00;99763.22;5051756;28;20027;-86
2023/08/01 11:38:14;;;;;;;;;;;;;;;17.29;100.00;99769.44;5049915;28;19927;-86
2023/08/01 11:41:03;;;;;;;;;;;;;;;17.60;100.00;99763.94;5054471;28;20251;-90
2023/08/01 11:43:48;;;;;;;;;;;;;;;17.85;100.00;99774.19;5041547;28;20694;-86
2023/08/01 11:46:34;;;;;;;;;;;;;;;17.87;100.00;99775.75;5057723;28;20087;-83
2023/08/01 11:49:20;;;;;;;;;;;;;;;17.81;100.00;99776.31;5054456;28;19932;-85
2023/08/01 11:52:05;;;;;;;;;;;;;;;17.77;100.00;99788.31;5054439;28;19990;-85
2023/08/01 11:54:51;;;;;;;;;;;;;;;17.81;100.00;99788.88;5054851;28;20367;-86
2023/08/01 11:57:36;;;;;;;;;;;;;;;17.83;100.00;99789.56;5057911;28;20585;-88
2023/08/01 12:00:25;;;;;;;;;;;;;;;17.87;100.00;99785.63;5055436;28;19942;-88
2023/08/01 12:03:13;;;;;;;;;;;;;;;17.94;100.00;99808.16;5056712;28;19927;-85
2023/08/01 12:06:04;;;;;;;;;;;;;;;17.67;100.00;99795.50;5055815;28;20078;-87
2023/08/01 12:08:53;;;;;;;;;;;;;;;17.31;100.00;99796.03;5067802;28;19925;-89
2023/08/01 12:11:41;;;;;;;;;;;;;;;17.06;100.00;99800.94;5055137;28;19924;-88
2023/08/01 12:14:29;;;;;;;;;;;;;;;16.96;100.00;99793.69;5068015;28;19968;-89
2023/08/01 12:17:14;;;;;;;;;;;;;;;17.06;100.00;99791.09;5053378;28;20845;-85
2023/08/01 12:20:01;;;;;;;;;;;;;;;17.15;100.00;99792.09;5066876;28;20466;-85
2023/08/01 12:22:46;;;;;;;;;;;;;;;17.11;100.00;99801.38;5054132;28;20334;-86
2023/08/01 12:25:31;;;;;;;;;;;;;;;16.90;100.00;99822.81;5062043;28;19935;-94
2023/08/01 12:28:17;;;;;;;;;;;;;;;16.43;100.00;99822.34;5064360;28;19920;-90
2023/08/01 12:31:03;;;;;;;;;;;;;;;16.20;100.00;99824.34;5068188;28;19928;-92
2023/08/01 12:33:48;;;;;;;;;;;;;;;16.13;100.00;99823.16;5068666;28;19931;-91
2023/08/01 12:36:34;;;;;;;;;;;;;;;16.31;100.00;99823.41;5068697;28;19916;-91
2023/08/01 12:39:19;;;;;;;;;;;;;;;16.40;100.00;99819.94;5077537;28;20071;-88
2023/08/01 12:42:05;;;;;;;;;;;;;;;16.59;100.00;99817.50;5066599;28;19916;-94
2023/08/01 12:44:50;;;;;;;;;;;;;;;16.64;100.00;99808.09;5066008;28;19926;-95
2023/08/01 12:47:35;;;;;;;;;;;;;;;16.77;100.00;99817.72;5067374;28;19925;-90
2023/08/01 12:50:21;;;;;;;;;;;;;;;16.88;100.00;99817.59;5067393;28;20003;-88
2023/08/01 12:53:06;;;;;;;;;;;;;;;16.99;100.00;99813.97;5061000;28;19940;-83
2023/08/01 12:55:51;;;;;;;;;;;;;;;17.08;100.00;99815.00;5058109;28;19931;-87
2023/08/01 12:58:36;;;;;;;;;;;;;;;17.03;100.00;99820.78;5069885;28;19924;-90
2023/08/01 13:01:22;;;;;;;;;;;;;;;16.88;100.00;99838.16;5042724;28;19920;-92
2023/08/01 13:04:07;;;;;;;;;;;;;;;16.69;100.00;99827.22;5070256;28;20474;-87
2023/08/01 13:06:53;;;;;;;;;;;;;;;16.60;100.00;99835.22;5055203;28;20396;-87
2023/08/01 13:09:38;;;;;;;;;;;;;;;16.54;100.00;99841.94;5065146;28;19936;-85
2023/08/01 13:12:23;;;;;;;;;;;;;;;16.47;100.00;99836.28;5056752;28;19928;-88
2023/08/01 13:15:12;;;;;;;;;;;;;;;16.39;100.00;99831.59;5058979;28;20019;-90
2023/08/01 13:17:57;;;;;;;;;;;;;;;16.28;100.00;99837.00;5057006;28;19920;-89
2023/08/01 13:20:42;;;;;;;;;;;;;;;16.32;100.00;99833.13;5056670;28;19932;-87
2023/08/01 13:23:28;;;;;;;;;;;;;;;16.40;100.00;99835.97;5053413;28;19921;-86
2023/08/01 13:26:13;;;;;;;;;;;;;;;16.52;100.00;99842.06;5058651;28;19935;-85
2023/08/01 13:28:59;;;;;;;;;;;;;;;16.53;100.00;99840.25;5057440;28;19924;-86
2023/08/01 13:31:44;;;;;;;;;;;;;;;16.67;100.00;99839.06;5056008;28;20046;-94
2023/08/01 13:34:29;;;;;;;;;;;;;;;16.73;100.00;99830.50;5053552;28;19924;-88
2023/08/01 13:37:15;;;;;;;;;;;;;;;16.75;100.00;99844.56;5052564;28;19935;-86
2023/08/01 13:40:00;;;;;;;;;;;;;;;16.70;100.00;99847.66;5056192;28;19979;-86
2023/08/01 13:42:45;;;;;;;;;;;;;;;16.70;100.00;99847.66;5053744;28;19925;-86
2023/08/01 13:45:31;;;;;;;;;;;;;;;16.65;100.00;99852.53;5067787;28;19932;-86
2023/08/01 13:48:17;;;;;;;;;;;;;;;16.53;100.00;99869.63;5071033;28;19923;-84
2023/08/01 13:51:02;;;;;;;;;;;;;;;16.25;100.00;99869.34;5067102;28;19955;-93
2023/08/01 13:53:47;;;;;;;;;;;;;;;16.11;100.00;99870.50;5070513;28;19956;-87
2023/08/01 13:56:32;;;;;;;;;;;;;;;16.06;100.00;99862.03;5077808;28;20331;-91
2023/08/01 13:59:18;;;;;;;;;;;;;;;16.07;100.00;99864.56;5049909;28;21553;-89
2023/08/01 14:02:03;;;;;;;;;;;;;;;16.09;100.00;99867.13;5060325;28;19939;-90
2023/08/01 14:04:52;;;;;;;;;;;;;;;16.20;100.00;99867.06;5059031;28;19934;-87
2023/08/01 14:07:37;;;;;;;;;;;;;;;16.29;100.00;99865.44;5059728;28;19935;-89
2023/08/01 14:10:23;;;;;;;;;;;;;;;16.32;100.00;99875.84;5060318;28;19921;-90